Data for 06/19/2018

Time Sea-Level Adjusted Pressure Absolute Pressure Temperature Relative Humidity Dew Point   
(mb) (inHg) (mb) (inHg) (C) (F) (%) (C) (F)
00:05 1020 30.12 849 25.07 9.9 49.9 86 7.8 46
00:10 1020 30.12 849 25.07 9.9 49.8 87 7.8 46
00:15 1020 30.12 849 25.07 9.9 49.8 88 7.9 46.3
00:20 1020 30.12 849 25.07 9.9 49.8 88 8 46.3
00:25 1020 30.12 849 25.07 9.9 49.8 88 8 46.4
00:30 1020 30.12 849 25.07 9.8 49.7 89 8.1 46.6
00:35 1020 30.12 849 25.07 9.8 49.7 90 8.2 46.8
00:40 1020 30.12 849 25.07 9.8 49.6 90 8.2 46.8
00:45 1020 30.12 849 25.07 9.7 49.5 90 8.2 46.8
00:50 1020 30.12 849 25.07 9.7 49.5 90 8.2 46.7
00:55 1020 30.12 849 25.07 9.7 49.5 90 8.2 46.7
01:00 1020 30.12 849 25.07 9.7 49.5 90 8.1 46.5
01:05 1020 30.12 849 25.07 9.7 49.5 89 8 46.5
01:10 1020 30.12 849 25.07 9.7 49.4 90 8 46.4
01:15 1020 30.12 849 25.07 9.6 49.3 90 8 46.4
01:20 1020 30.12 849 25.07 9.6 49.3 90 8 46.3
01:25 1020 30.12 849 25.07 9.6 49.3 90 8 46.3
01:30 1020 30.12 849 25.07 9.6 49.3 89 7.8 46.1
01:35 1020 30.12 849 25.07 9.6 49.3 88 7.7 45.9
01:40 1020 30.12 849 25.07 9.6 49.4 88 7.7 45.9
01:45 1020 30.12 849 25.07 9.6 49.3 88 7.7 45.9
01:50 1020 30.12 849 25.07 9.5 49.1 88 7.7 45.9
01:55 1020 30.12 849 25.07 9.5 49.1 88 7.7 45.8
02:00 1020 30.12 849 25.07 9.5 49.1 88 7.6 45.7
02:05 1020 30.12 849 25.07 9.5 49.2 88 7.6 45.7
02:10 1020 30.12 849 25.07 9.6 49.2 87 7.5 45.4
02:15 1020 30.12 849 25.07 9.6 49.3 86 7.4 45.4
02:20 1020 30.12 849 25.07 9.7 49.5 86 7.4 45.4
02:25 1020 30.12 849 25.07 9.7 49.4 86 7.5 45.4
02:30 1020 30.12 849 25.07 9.6 49.3 86 7.5 45.5
02:35 1020 30.12 849 25.07 9.6 49.2 87 7.5 45.5
02:40 1020 30.12 849 25.07 9.6 49.3 86 7.4 45.3
02:45 1020 30.12 849 25.07 9.6 49.3 85 7.3 45.2
02:50 1020 30.12 849 25.07 9.7 49.4 86 7.4 45.3
02:55 1020 30.12 849 25.07 9.7 49.4 86 7.4 45.4
03:00 1020 30.12 849 25.07 9.7 49.5 85 7.4 45.3
03:05 1020 30.12 849 25.07 9.7 49.5 86 7.4 45.4
03:10 1020 30.12 849 25.07 9.7 49.4 86 7.5 45.5
03:15 1020 30.12 849 25.07 9.6 49.2 87 7.5 45.4
03:20 1020 30.12 849 25.07 9.5 49.1 87 7.5 45.5
03:25 1020 30.12 849 25.07 9.5 49.1 87 7.5 45.5
03:30 1020 30.12 849 25.07 9.4 48.9 88 7.5 45.5
03:35 1020 30.12 849 25.07 9.4 48.8 88 7.5 45.5
03:40 1020 30.12 849 25.07 9.3 48.7 89 7.5 45.5
03:45 1020 30.12 849 25.07 9.3 48.7 88 7.5 45.4
03:50 1020 30.12 849 25.07 9.3 48.7 88 7.4 45.4
03:55 1020 30.12 849 25.07 9.3 48.8 88 7.4 45.4
04:00 1020 30.12 849 25.07 9.3 48.7 88 7.4 45.4
04:05 1020 30.12 849 25.07 9.3 48.7 88 7.5 45.5
04:10 1020 30.12 849 25.07 9.3 48.8 88 7.5 45.4
04:15 1020 30.12 849 25.07 9.4 48.9 87 7.4 45.3
04:20 1020 30.12 849 25.07 9.5 49.2 86 7.2 45
04:25 1020 30.12 849 25.07 9.7 49.5 85 7.3 45.2
04:30 1020 30.12 849 25.07 9.7 49.5 85 7.4 45.3
04:35 1020 30.12 849 25.07 9.5 49.1 86 7.3 45.1
04:40 1020 30.12 849 25.07 9.4 48.8 87 7.3 45.1
04:45 1020 30.12 849 25.07 9.3 48.7 87 7.2 45
04:50 1020 30.12 849 25.07 9.2 48.6 87 7.2 45
04:55 1020 30.12 849 25.07 9.2 48.6 88 7.3 45.2
05:00 1020 30.12 849 25.07 9.1 48.4 89 7.5 45.4
05:05 1020 30.12 849 25.07 9 48.1 90 7.4 45.3
05:10 1020 30.12 849 25.07 8.9 48 89 7.3 45.1
05:15 1020 30.12 849 25.07 8.9 48 89 7.2 45
05:20 1020 30.12 849 25.07 8.9 48 89 7.2 45
05:25 1020 30.12 849 25.07 8.9 47.9 89 7.1 44.8
05:30 1020 30.12 849 25.07 8.9 48 89 7.1 44.8
05:35 1020 30.12 849 25.07 8.9 48 89 7.1 44.8
05:40 1020 30.12 849 25.07 8.9 48 88 7 44.7
05:45 1020 30.12 849 25.07 8.9 48.1 88 7 44.6
05:50 1020 30.12 849 25.07 8.9 48.1 88 7.1 44.8
05:55 1020 30.12 849 25.07 8.9 48 88 7.1 44.7
06:00 1020 30.12 849 25.07 8.9 48 88 7.1 44.7
06:05 1020 30.12 849 25.07 9 48.1 88 7 44.7
06:10 1020 30.12 849 25.07 9 48.1 88 7 44.6
06:15 1020 30.12 849 25.07 9 48.1 88 7 44.7
06:20 1020 30.12 849 25.07 9 48.2 88 7 44.7
06:25 1020 30.12 849 25.07 9 48.2 87 7 44.6
06:30 1020 30.12 849 25.07 9 48.2 87 6.9 44.4
06:35 1020 30.12 849 25.07 9 48.2 87 6.9 44.5
06:40 1020 30.12 849 25.07 9 48.3 87 6.9 44.4
06:45 1020 30.12 849 25.07 9.1 48.4 86 7 44.5
06:50 1020 30.12 849 25.07 9.1 48.4 86 6.9 44.5
06:55 1020 30.12 849 25.07 9.2 48.5 86 6.9 44.4
07:00 1020 30.12 849 25.07 9.2 48.5 85 6.8 44.2
07:05 1020 30.12 849 25.07 9.3 48.7 84 6.8 44.2
07:10 1020 30.12 849 25.07 9.3 48.8 85 6.9 44.4
07:15 1020 30.12 849 25.07 9.4 48.8 84 6.8 44.2
07:20 1020 30.12 849 25.07 9.4 48.9 84 6.8 44.3
07:25 1020 30.12 849 25.07 9.5 49 82 6.6 43.9
07:30 1020 30.12 849 25.07 9.6 49.3 83 6.8 44.2
07:35 1020 30.12 849 25.07 9.7 49.4 82 6.8 44.2
07:40 1020 30.12 849 25.07 9.7 49.4 83 6.9 44.4
07:45 1020 30.12 849 25.07 9.7 49.5 84 7.1 44.9
07:50 1020 30.12 850 25.1 9.8 49.7 84 7.2 44.9
07:55 1020 30.12 850 25.1 9.9 49.8 84 7.4 45.3
08:00 1020 30.12 850 25.1 10 49.9 83 7.2 45
08:05 1021 30.15 850 25.1 10 50 83 7.3 45.2
08:10 1021 30.15 850 25.1 10 50.1 84 7.4 45.3
08:15 1021 30.15 850 25.1 10.1 50.1 83 7.3 45.2
08:20 1021 30.15 850 25.1 10.2 50.3 83 7.4 45.4
08:25 1021 30.15 850 25.1 10.3 50.5 84 7.6 45.7
08:30 1021 30.15 850 25.1 10.3 50.5 84 7.7 45.9
08:35 1021 30.15 850 25.1 10.3 50.5 85 7.8 46.1
08:40 1021 30.15 850 25.1 10.3 50.6 84 7.8 46.1
08:45 1021 30.15 850 25.1 10.5 50.9 85 8.1 46.6
08:50 1021 30.15 850 25.1 10.6 51.2 84 8.1 46.5
08:55 1021 30.15 850 25.1 10.7 51.3 83 7.9 46.3
09:00 1021 30.15 850 25.1 10.8 51.5 82 7.9 46.2
09:05 1021 30.15 850 25.1 11 51.9 82 8.1 46.6
09:10 1021 30.15 850 25.1 11.3 52.3 81 8.1 46.5
09:15 1021 30.15 850 25.1 11.5 52.8 79 8.1 46.6
09:20 1021 30.15 850 25.1 11.7 53 79 8.1 46.5
09:25 1021 30.15 850 25.1 11.8 53.3 80 8.4 47.2
09:30 1021 30.15 850 25.1 12 53.5 80 8.7 47.6
09:35 1021 30.15 850 25.1 12 53.6 80 8.7 47.6
09:40 1021 30.15 850 25.1 12 53.6 79 8.4 47.2
09:45 1021 30.15 850 25.1 11.8 53.2 80 8.5 47.3
09:50 1021 30.15 850 25.1 11.7 53.1 83 8.8 47.9
09:55 1021 30.15 850 25.1 11.6 53 84 9 48.1
10:00 1021 30.15 850 25.1 11.7 53 84 9.1 48.3
10:05 1021 30.15 850 25.1 11.6 52.9 82 8.7 47.7
10:10 1021 30.15 850 25.1 11.4 52.6 83 8.7 47.7
10:15 1021 30.15 850 25.1 11.5 52.7 81 8.3 47
10:20 1021 30.15 850 25.1 11.4 52.4 81 8.3 46.9
10:25 1021 30.15 850 25.1 11.3 52.4 80 8.1 46.6
10:30 1021 30.15 850 25.1 11.2 52.2 80 8 46.4
10:35 1021 30.15 850 25.1 11.3 52.4 81 8.3 46.9
10:40 1021 30.15 850 25.1 11.4 52.5 82 8.4 47.1
10:45 1021 30.15 850 25.1 11.3 52.3 84 8.7 47.6
10:50 1021 30.15 850 25.1 11.2 52.1 84 8.6 47.5
10:55 1021 30.15 850 25.1 11.1 52 85 8.7 47.6
11:00 1021 30.15 850 25.1 11.1 51.9 86 8.7 47.7
11:05 1021 30.15 850 25.1 11 51.9 86 8.8 47.8
11:10 1021 30.15 851 25.13 11 51.8 86 8.8 47.9
11:15 1021 30.15 851 25.13 10.7 51.3 86 8.6 47.4
11:20 1021 30.15 851 25.13 10.6 51.1 87 8.5 47.3
11:25 1021 30.15 851 25.13 10.5 50.9 88 8.6 47.4
11:30 1021 30.15 851 25.13 10.6 51.2 88 8.7 47.7
11:35 1022 30.18 851 25.13 10.7 51.2 87 8.7 47.6
11:40 1022 30.18 851 25.13 10.6 51.1 88 8.6 47.6
11:45 1022 30.18 851 25.13 10.6 51.1 88 8.7 47.7
11:50 1022 30.18 851 25.13 10.7 51.3 88 8.7 47.7
11:55 1022 30.18 851 25.13 10.6 51.1 88 8.7 47.6
12:00 1022 30.18 851 25.13 10.5 50.9 88 8.6 47.4
12:05 1022 30.18 851 25.13 10.6 51 89 8.7 47.7
12:10 1022 30.18 851 25.13 10.6 51.1 88 8.8 47.8
12:15 1022 30.18 851 25.13 10.7 51.2 87 8.7 47.7
12:20 1022 30.18 851 25.13 10.7 51.2 87 8.6 47.5
12:25 1022 30.18 851 25.13 10.6 51 88 8.6 47.5
12:30 1022 30.18 851 25.13 10.6 51.1 88 8.8 47.8
12:35 1022 30.18 851 25.13 10.8 51.4 88 8.8 47.9
12:40 1022 30.18 851 25.13 10.7 51.2 88 8.8 47.8
12:45 1022 30.18 851 25.13 10.7 51.2 88 8.8 47.9
12:50 1022 30.18 851 25.13 10.7 51.2 87 8.7 47.6
12:55 1022 30.18 851 25.13 10.7 51.2 88 8.7 47.7
13:00 1022 30.18 851 25.13 10.8 51.5 88 8.9 48
13:05 1022 30.18 851 25.13 10.9 51.5 85 8.5 47.2
13:10 1022 30.18 851 25.13 10.6 51 86 8.4 47.1
13:15 1022 30.18 851 25.13 10.4 50.7 87 8.3 47
13:20 1022 30.18 851 25.13 10.5 50.9 88 8.6 47.5
13:25 1022 30.18 851 25.13 10.8 51.4 87 8.7 47.6
13:30 1022 30.18 851 25.13 11.1 52 87 9 48.2
13:35 1022 30.18 852 25.16 11.3 52.3 86 8.9 48.1
13:40 1022 30.18 852 25.16 11.2 52.2 85 8.8 47.9
13:45 1022 30.18 852 25.16 11.3 52.3 84 8.7 47.7
13:50 1022 30.18 852 25.16 11.2 52.2 81 8.1 46.5
13:55 1022 30.18 852 25.16 11.3 52.3 80 7.9 46.3
14:00 1022 30.18 852 25.16 11.4 52.5 82 8.4 47.2
14:05 1022 30.18 852 25.16 11.6 52.9 81 8.4 47.1
14:10 1023 30.21 852 25.16 11.7 53 81 8.5 47.4
14:15 1023 30.21 852 25.16 11.8 53.2 80 8.5 47.3
14:20 1023 30.21 852 25.16 11.8 53.2 81 8.6 47.5
14:25 1023 30.21 852 25.16 11.7 53 78 8.1 46.5
14:30 1023 30.21 852 25.16 11.5 52.7 77 7.5 45.6
14:35 1023 30.21 852 25.16 11.4 52.6 80 8.1 46.6
14:40 1023 30.21 852 25.16 11.5 52.6 80 8.2 46.7
14:45 1023 30.21 852 25.16 11.5 52.8 74 7.2 44.9
14:50 1023 30.21 852 25.16 11.3 52.3 78 7.5 45.5
14:55 1023 30.21 852 25.16 11.4 52.5 75 7.1 44.8
15:00 1023 30.21 852 25.16 11 51.8 77 7.2 44.9
15:05 1023 30.21 852 25.16 10.9 51.7 78 7.2 45
15:10 1023 30.21 852 25.16 11 51.8 81 7.8 46.1
15:15 1023 30.21 852 25.16 11.3 52.3 78 7.6 45.6
15:20 1023 30.21 852 25.16 11.6 52.8 76 7.6 45.6
15:25 1023 30.21 852 25.16 11.7 53.1 76 7.7 45.9
15:30 1023 30.21 852 25.16 11.8 53.3 77 7.9 46.2
15:35 1023 30.21 852 25.16 12 53.6 74 7.5 45.5
15:40 1023 30.21 852 25.16 12.4 54.3 69 6.9 44.4
15:45 1023 30.21 852 25.16 13.1 55.6 68 7.5 45.5
15:50 1023 30.21 852 25.16 13.6 56.5 64 7 44.6
15:55 1023 30.21 852 25.16 13.7 56.7 65 7.3 45.2
16:00 1023 30.21 852 25.16 14.2 57.5 65 7.7 45.9
16:05 1023 30.21 852 25.16 14.5 58 62 7.3 45.2
16:10 1023 30.21 852 25.16 14.3 57.8 61 7 44.6
16:15 1023 30.21 852 25.16 13.9 56.9 64 7.1 44.8
16:20 1023 30.21 852 25.16 13.5 56.3 65 7.1 44.7
16:25 1023 30.21 852 25.16 14.1 57.3 61 6.8 44.2
16:30 1023 30.21 852 25.16 14.1 57.4 62 7 44.7
16:35 1023 30.21 852 25.16 14.3 57.8 59 6.4 43.5
16:40 1023 30.21 852 25.16 15.2 59.4 55 6.2 43.2
16:45 1023 30.21 852 25.16 15.8 60.5 53 6.4 43.5
16:50 1023 30.21 852 25.16 16.7 62 53 7.1 44.8
16:55 1023 30.21 852 25.16 16.3 61.3 55 7.2 45
17:00 1023 30.21 852 25.16 15.6 60 54 6.3 43.4
17:05 1023 30.21 852 25.16 15.3 59.5 55 6.4 43.6
17:10 1023 30.21 852 25.16 15 59 57 6.7 44.1
17:15 1023 30.21 852 25.16 15 59 57 6.8 44.2
17:20 1023 30.21 852 25.16 14.9 58.9 57 6.7 44
17:25 1023 30.21 852 25.16 14.9 58.9 58 6.8 44.2
17:30 1023 30.21 852 25.16 14.9 58.8 58 6.9 44.3
17:35 1023 30.21 852 25.16 14.8 58.6 60 7.1 44.7
17:40 1023 30.21 852 25.16 14.6 58.3 61 7.3 45.2
17:45 1023 30.21 852 25.16 14.5 58.2 61 7.1 44.8
17:50 1023 30.21 852 25.16 14.4 58 62 7.2 45
17:55 1023 30.21 852 25.16 14.4 57.9 65 8 46.4
18:00 1023 30.21 852 25.16 14.4 57.9 65 8.1 46.5
18:05 1023 30.21 852 25.16 14.2 57.6 66 8.1 46.6
18:10 1023 30.21 852 25.16 14 57.1 68 8.2 46.7
18:15 1023 30.21 852 25.16 13.7 56.7 68 7.9 46.2
18:20 1023 30.21 852 25.16 13.6 56.4 69 8 46.4
18:25 1023 30.21 852 25.16 13.5 56.2 69 8 46.5
18:30 1023 30.21 852 25.16 13.4 56.2 69 8 46.4
18:35 1023 30.21 852 25.16 13.6 56.5 68 7.8 46
18:40 1023 30.21 852 25.16 13.9 56.9 67 8 46.3
18:45 1023 30.21 852 25.16 14 57.2 66 7.9 46.1
18:50 1023 30.21 852 25.16 13.9 57.1 66 7.9 46.1
18:55 1023 30.21 852 25.16 14.1 57.4 66 7.9 46.2
19:00 1023 30.21 852 25.16 14.3 57.8 65 7.8 46
19:05 1023 30.21 852 25.16 14.5 58.2 64 7.8 46
19:10 1023 30.21 852 25.16 14.6 58.2 64 7.8 46.1
19:15 1023 30.21 852 25.16 14.5 58 64 7.8 46.1
19:20 1023 30.21 852 25.16 14.1 57.5 66 7.9 46.3
19:25 1023 30.21 853 25.19 14 57.2 67 8 46.4
19:30 1023 30.21 853 25.19 13.8 56.9 68 8.1 46.6
19:35 1023 30.21 853 25.19 13.8 56.9 67 7.8 46.1
19:40 1023 30.21 853 25.19 13.8 56.8 68 8 46.4
19:45 1023 30.21 853 25.19 13.7 56.6 68 7.9 46.3
19:50 1023 30.21 853 25.19 13.6 56.4 69 8 46.3
19:55 1023 30.21 853 25.19 13.5 56.2 70 8.2 46.7
20:00 1023 30.21 853 25.19 13.4 56.1 71 8.2 46.8
20:05 1023 30.21 853 25.19 13.3 56 70 8.1 46.6
20:10 1024 30.24 853 25.19 13.2 55.7 72 8.3 47
20:15 1024 30.24 853 25.19 13.1 55.5 72 8.2 46.8
20:20 1024 30.24 853 25.19 12.9 55.3 73 8.2 46.7
20:25 1024 30.24 853 25.19 12.9 55.1 73 8.1 46.6
20:30 1024 30.24 853 25.19 12.8 55.1 73 8.1 46.6
20:35 1024 30.24 853 25.19 12.8 55 73 8.1 46.7
20:40 1024 30.24 853 25.19 12.7 54.9 73 8.1 46.6
20:45 1024 30.24 853 25.19 12.7 54.9 75 8.3 47
20:50 1024 30.24 853 25.19 12.7 54.8 74 8.1 46.6
20:55 1024 30.24 853 25.19 12.6 54.8 74 8.1 46.5
21:00 1024 30.24 853 25.19 12.6 54.7 77 8.6 47.5
21:05 1024 30.24 853 25.19 12.5 54.5 78 8.8 47.9
21:10 1024 30.24 853 25.19 12.3 54.1 80 9 48.2
21:15 1024 30.24 853 25.19 12.1 53.7 82 9.2 48.5
21:20 1024 30.24 853 25.19 11.9 53.5 83 9.2 48.6
21:25 1024 30.24 854 25.22 11.8 53.2 84 9.2 48.5
21:30 1024 30.24 854 25.22 11.7 53 84 9.1 48.4
21:35 1024 30.24 854 25.22 11.6 52.9 85 9.1 48.4
21:40 1024 30.24 854 25.22 11.6 52.8 85 9.1 48.3
21:45 1025 30.27 854 25.22 11.5 52.6 85 9 48.1
21:50 1025 30.27 854 25.22 11.4 52.4 86 9.1 48.3
21:55 1025 30.27 854 25.22 11.3 52.4 86 9.1 48.4
22:00 1025 30.27 854 25.22 11.2 52.2 87 9.2 48.5
22:05 1025 30.27 854 25.22 11.2 52.1 88 9.2 48.5
22:10 1025 30.27 854 25.22 11.1 51.9 88 9.1 48.4
22:15 1025 30.27 854 25.22 11.1 51.9 87 9.1 48.3
22:20 1025 30.27 854 25.22 11.1 52.1 87 9.1 48.5
22:25 1025 30.27 854 25.22 11.1 51.9 88 9.1 48.3
22:30 1025 30.27 854 25.22 11 51.8 88 9.1 48.4
22:35 1025 30.27 854 25.22 11.1 52 88 9.2 48.5
22:40 1025 30.27 854 25.22 11.2 52.1 88 9.3 48.7
22:45 1025 30.27 854 25.22 11.2 52.2 88 9.3 48.7
22:50 1025 30.27 854 25.22 11.2 52.2 88 9.3 48.8
22:55 1025 30.27 854 25.22 11.3 52.3 88 9.3 48.8
23:00 1025 30.27 854 25.22 11.3 52.3 87 9.3 48.7
23:05 1025 30.27 854 25.22 11.3 52.4 87 9.2 48.6
23:10 1025 30.27 854 25.22 11.4 52.5 87 9.3 48.8
23:15 1025 30.27 854 25.22 11.5 52.6 87 9.4 48.9
23:20 1025 30.27 854 25.22 11.5 52.6 87 9.3 48.8
23:25 1025 30.27 854 25.22 11.4 52.5 87 9.2 48.6
23:30 1025 30.27 854 25.22 11.4 52.4 87 9.2 48.6
23:35 1025 30.27 854 25.22 11.3 52.3 87 9.2 48.5
23:40 1025 30.27 854 25.22 11.3 52.3 87 9.2 48.6
23:45 1025 30.27 854 25.22 11.2 52.2 87 9.2 48.6
23:50 1025 30.27 854 25.22 11.1 52 88 9.2 48.6
23:55 1025 30.27 854 25.22 11.1 52 88 9.1 48.5
24:00 1025 30.27 854 25.22 11.1 51.9 88 9.1 48.4